Time;durP1;ratioP1;P1;durP2;ratioP2;P2;SDS_P1;SDS_P2;PMS_P1;PMS_P2;Temp;Humidity;BMP_temperature;BMP_pressure;BME280_temperature;BME280_humidity;BME280_pressure;Samples;Min_cycle;Max_cycle;Signal;HPM_P1;HPM_P2
2023/07/27 00:00:12;;;;;;;10.50;5.00;;;;;;;30.12;100.00;99372.73;109226;1251;66245;-90
2023/07/27 00:03:03;;;;;;;16.10;5.90;;;;;;;30.13;100.00;99343.97;109037;1253;60687;-86
2023/07/27 00:05:51;;;;;;;9.20;5.00;;;;;;;30.11;100.00;99378.06;109010;1253;66224;-89
2023/07/27 00:08:40;;;;;;;7.70;5.20;;;;;;;30.13;100.00;99394.83;109082;1253;59651;-86
2023/07/27 00:11:28;;;;;;;10.50;6.00;;;;;;;30.23;100.00;99415.95;109103;1251;59170;-90
2023/07/27 00:14:16;;;;;;;9.00;4.90;;;;;;;30.38;100.00;99430.90;109136;1251;64817;-90
2023/07/27 00:17:05;;;;;;;10.10;5.70;;;;;;;30.38;100.00;99398.20;109222;1250;60595;-87
2023/07/27 00:19:54;;;;;;;18.70;6.30;;;;;;;30.44;100.00;99368.11;109100;1251;65766;-86
2023/07/27 00:22:42;;;;;;;11.60;6.30;;;;;;;30.47;100.00;99381.80;109153;1251;59023;-89
2023/07/27 00:25:31;;;;;;;8.80;5.40;;;;;;;30.54;100.00;99369.08;109242;1251;59549;-89
2023/07/27 00:28:19;;;;;;;10.20;5.70;;;;;;;30.51;100.00;99391.54;109053;1251;67512;-86
2023/07/27 00:31:08;;;;;;;12.20;6.30;;;;;;;30.42;100.00;99413.25;109254;1251;61757;-89
2023/07/27 00:33:56;;;;;;;10.00;5.10;;;;;;;30.33;100.00;99359.92;109253;1251;63805;-88
2023/07/27 00:36:44;;;;;;;11.30;5.50;;;;;;;30.31;100.00;99279.40;109232;1251;59745;-89
2023/07/27 00:39:34;;;;;;;10.50;5.40;;;;;;;30.27;100.00;99275.30;109203;1251;59028;-88
2023/07/27 00:42:22;;;;;;;9.10;5.50;;;;;;;30.31;100.00;99273.86;109213;1250;65914;-85
2023/07/27 00:45:10;;;;;;;9.40;4.90;;;;;;;30.34;100.00;99270.13;109103;1251;62407;-89
2023/07/27 00:47:59;;;;;;;8.10;5.30;;;;;;;30.25;100.00;99283.16;109189;1251;63768;-86
2023/07/27 00:50:47;;;;;;;8.00;5.10;;;;;;;30.22;100.00;99291.45;109057;1251;59495;-85
2023/07/27 00:53:35;;;;;;;7.60;5.70;;;;;;;30.26;100.00;99298.77;109092;1251;59451;-87
2023/07/27 00:56:24;;;;;;;8.90;5.20;;;;;;;30.28;100.00;99298.73;109072;1251;67250;-85
2023/07/27 00:59:12;;;;;;;10.70;6.40;;;;;;;30.32;100.00;99298.95;109207;1251;61634;-87
2023/07/27 01:02:01;;;;;;;10.80;6.30;;;;;;;30.30;100.00;99312.42;109124;1251;65413;-88
2023/07/27 01:04:49;;;;;;;9.20;6.30;;;;;;;30.28;100.00;99326.41;109086;1253;59256;-86
2023/07/27 01:07:38;;;;;;;10.70;6.70;;;;;;;30.33;100.00;99328.21;109029;1252;59606;-87
2023/07/27 01:10:47;;;;;;;12.30;7.10;;;;;;;30.43;100.00;99322.41;109303;1252;64612;-85
2023/07/27 01:14:05;;;;;;;9.90;6.20;;;;;;;30.44;100.00;99312.79;109104;1253;60810;-88
2023/07/27 01:17:02;;;;;;;12.60;7.40;;;;;;;30.47;100.00;99305.80;109091;1252;65521;-87
2023/07/27 01:20:18;;;;;;;11.80;6.60;;;;;;;30.49;100.00;99310.65;109198;1253;59150;-87
2023/07/27 01:23:28;;;;;;;15.90;8.20;;;;;;;30.47;100.00;99297.58;108924;1252;59232;-87
2023/07/27 01:26:38;;;;;;;10.70;6.40;;;;;;;30.46;100.00;99281.90;109115;1253;65748;-87
2023/07/27 01:29:47;;;;;;;11.20;6.70;;;;;;;30.42;100.00;99260.81;109025;1253;59740;-87
2023/07/27 01:32:36;;;;;;;11.90;7.10;;;;;;;30.34;100.00;99279.16;108819;1254;251584;-87
2023/07/27 01:35:40;;;;;;;14.00;6.70;;;;;;;30.36;100.00;99282.48;109015;1252;59728;-87
2023/07/27 01:38:29;;;;;;;12.50;7.10;;;;;;;30.41;100.00;99279.28;109170;1253;59449;-85
2023/07/27 01:41:17;;;;;;;10.90;6.40;;;;;;;30.42;100.00;99277.90;108716;1253;70418;-85
2023/07/27 01:44:05;;;;;;;11.60;6.70;;;;;;;30.37;100.00;99274.00;108990;1253;61970;-85
2023/07/27 01:46:54;;;;;;;11.40;6.80;;;;;;;30.34;100.00;99270.77;108955;1253;63802;-88
2023/07/27 01:49:42;;;;;;;12.80;6.80;;;;;;;30.35;100.00;99266.96;109002;1254;59526;-87
2023/07/27 01:52:30;;;;;;;12.20;6.70;;;;;;;30.33;100.00;99270.50;108792;1253;61873;-87
2023/07/27 01:55:19;;;;;;;10.60;6.40;;;;;;;30.38;100.00;99261.33;109098;1253;65688;-87
2023/07/27 01:58:07;;;;;;;11.40;6.80;;;;;;;30.29;100.00;99257.54;109113;1253;62643;-87
2023/07/27 02:00:55;;;;;;;12.90;7.60;;;;;;;30.14;100.00;99251.64;108982;1253;64446;-85
2023/07/27 02:03:44;;;;;;;14.10;7.40;;;;;;;30.07;100.00;99238.94;108976;1254;59316;-85
2023/07/27 02:06:33;;;;;;;11.20;6.70;;;;;;;30.01;100.00;99236.37;108890;1252;59183;-84
2023/07/27 02:09:22;;;;;;;10.20;6.20;;;;;;;30.11;100.00;99240.52;109097;1254;68105;-85
2023/07/27 02:12:15;;;;;;;9.10;6.30;;;;;;;30.25;100.00;99247.75;109122;1254;69424;-85
2023/07/27 02:15:30;;;;;;;10.80;6.60;;;;;;;30.35;100.00;99250.23;109080;1253;65744;-86
2023/07/27 02:18:19;;;;;;;11.20;6.50;;;;;;;30.36;100.00;99253.90;109032;1253;59253;-85
2023/07/27 02:21:07;;;;;;;11.10;6.50;;;;;;;30.35;100.00;99279.38;109140;1252;59442;-85
2023/07/27 02:23:56;;;;;;;9.40;6.10;;;;;;;30.41;100.00;99294.52;109084;1252;64517;-88
2023/07/27 02:26:44;;;;;;;12.40;6.50;;;;;;;30.38;100.00;99317.45;108825;1253;65268;-87
2023/07/27 02:29:33;;;;;;;12.90;6.30;;;;;;;30.36;100.00;99340.77;109087;1253;65631;-87
2023/07/27 02:32:21;;;;;;;12.20;6.40;;;;;;;30.24;100.00;99360.96;109149;1252;59715;-87
2023/07/27 02:35:09;;;;;;;12.20;6.40;;;;;;;30.13;100.00;99385.82;108945;1252;59733;-85
2023/07/27 02:37:58;;;;;;;14.40;6.70;;;;;;;30.16;100.00;99394.53;108962;1254;67910;-85
2023/07/27 02:40:47;;;;;;;12.60;7.40;;;;;;;30.14;100.00;99385.06;108916;1254;60000;-87
2023/07/27 02:43:35;;;;;;;11.70;6.60;;;;;;;30.12;100.00;99378.61;109067;1254;66529;-87
2023/07/27 02:46:24;;;;;;;10.50;6.30;;;;;;;30.24;100.00;99368.66;109018;1254;59386;-88
2023/07/27 02:49:13;;;;;;;10.50;6.20;;;;;;;30.29;100.00;99366.06;108832;1253;59546;-88
2023/07/27 02:52:02;;;;;;;13.30;6.00;;;;;;;30.25;100.00;99359.71;109244;1252;67210;-87
2023/07/27 02:54:50;;;;;;;13.80;6.60;;;;;;;30.16;100.00;99349.84;109052;1253;60445;-87
2023/07/27 02:57:39;;;;;;;12.90;6.90;;;;;;;30.17;100.00;99358.75;108982;1253;62966;-87
2023/07/27 03:00:27;;;;;;;9.90;6.40;;;;;;;30.17;100.00;99350.95;109108;1252;59152;-88
2023/07/27 03:03:16;;;;;;;14.30;6.70;;;;;;;30.23;100.00;99343.64;109136;1253;59011;-86
2023/07/27 03:06:04;;;;;;;9.40;6.40;;;;;;;30.33;100.00;99340.11;109067;1252;67130;-88
2023/07/27 03:08:53;;;;;;;13.10;6.90;;;;;;;30.38;100.00;99352.88;109112;1253;61970;-85
2023/07/27 03:11:41;;;;;;;12.60;6.90;;;;;;;30.37;100.00;99362.40;108990;1253;65214;-86
2023/07/27 03:14:29;;;;;;;11.30;6.80;;;;;;;30.35;100.00;99356.57;109068;1251;59532;-86
2023/07/27 03:17:18;;;;;;;12.80;6.80;;;;;;;30.34;100.00;99353.38;109212;1252;59086;-88
2023/07/27 03:20:08;;;;;;;13.60;7.10;;;;;;;30.45;100.00;99350.54;109061;1253;75784;-86
2023/07/27 03:22:56;;;;;;;11.70;7.10;;;;;;;30.48;100.00;99349.83;109068;1253;62256;-86
2023/07/27 03:25:45;;;;;;;10.80;6.40;;;;;;;30.50;100.00;99350.56;109151;1252;62524;-88
2023/07/27 03:28:34;;;;;;;10.50;6.80;;;;;;;30.55;100.00;99346.58;109138;1253;59075;-85
2023/07/27 03:31:23;;;;;;;12.20;6.50;;;;;;;30.54;100.00;99336.79;109175;1252;59300;-88
2023/07/27 03:34:13;;;;;;;10.10;6.80;;;;;;;30.47;100.00;99330.69;109132;1253;68304;-89
2023/07/27 03:37:01;;;;;;;13.60;7.30;;;;;;;30.42;100.00;99315.74;109061;1253;61266;-89
2023/07/27 03:39:50;;;;;;;17.40;6.60;;;;;;;30.37;100.00;99301.53;109191;1252;64484;-86
2023/07/27 03:42:38;;;;;;;12.10;6.40;;;;;;;30.37;100.00;99307.97;109101;1253;59542;-88
2023/07/27 03:45:26;;;;;;;13.20;6.80;;;;;;;30.46;100.00;99320.47;109111;1252;59675;-89
2023/07/27 03:48:15;;;;;;;13.60;7.20;;;;;;;30.50;100.00;99315.80;109078;1252;68018;-86
2023/07/27 03:51:03;;;;;;;15.90;7.40;;;;;;;30.48;100.00;99318.34;109173;1253;61115;-89
2023/07/27 03:53:52;;;;;;;10.40;6.80;;;;;;;30.48;100.00;99325.02;108909;1253;66045;-87
2023/07/27 03:56:52;;;;;;;13.20;7.00;;;;;;;30.51;100.00;99305.55;109023;1253;59091;-87
2023/07/27 03:59:41;;;;;;;13.00;7.10;;;;;;;30.44;100.00;99261.10;109037;1253;59132;-87
2023/07/27 04:02:29;;;;;;;13.50;7.00;;;;;;;30.38;100.00;99235.91;109072;1253;68301;-89
2023/07/27 04:05:18;;;;;;;10.40;6.90;;;;;;;30.41;100.00;99232.34;108997;1254;59906;-88
2023/07/27 04:08:06;;;;;;;15.20;8.20;;;;;;;30.44;100.00;99256.02;109076;1253;64697;-87
2023/07/27 04:10:54;;;;;;;9.50;6.70;;;;;;;30.43;100.00;99288.35;109112;1254;59586;-89
2023/07/27 04:13:43;;;;;;;14.70;7.10;;;;;;;30.47;100.00;99299.02;109020;1253;59692;-88
2023/07/27 04:16:31;;;;;;;19.70;6.90;;;;;;;30.49;100.00;99315.41;108907;1253;67636;-87
2023/07/27 04:19:20;;;;;;;13.30;7.80;;;;;;;30.54;100.00;99335.73;109206;1252;61122;-89
2023/07/27 04:22:08;;;;;;;11.80;6.90;;;;;;;30.52;100.00;99333.02;109004;1254;62530;-90
2023/07/27 04:24:57;;;;;;;12.30;7.00;;;;;;;30.44;100.00;99322.67;109044;1253;59462;-89
2023/07/27 04:27:45;;;;;;;10.50;6.50;;;;;;;30.49;100.00;99311.69;109116;1253;59204;-89
2023/07/27 04:30:33;;;;;;;16.40;7.10;;;;;;;30.53;100.00;99295.02;109073;1253;67744;-90
2023/07/27 04:33:22;;;;;;;14.60;7.30;;;;;;;30.72;100.00;99278.30;109092;1256;61855;-87
2023/07/27 04:36:10;;;;;;;17.20;6.80;;;;;;;30.83;100.00;99261.09;108990;1253;66412;-87
2023/07/27 04:38:59;;;;;;;11.40;7.00;;;;;;;30.84;100.00;99273.93;109075;1253;59712;-87
2023/07/27 04:41:47;;;;;;;14.00;7.30;;;;;;;30.94;100.00;99285.91;109083;1253;60071;-89
2023/07/27 04:44:35;;;;;;;14.80;7.20;;;;;;;31.02;100.00;99303.98;109206;1253;66360;-91
2023/07/27 04:47:24;;;;;;;12.30;7.70;;;;;;;31.16;100.00;99325.98;108881;1253;61332;-88
2023/07/27 04:50:12;;;;;;;14.20;8.10;;;;;;;31.25;100.00;99303.30;108990;1253;65605;-86
2023/07/27 04:53:01;;;;;;;14.80;8.10;;;;;;;31.27;100.00;99255.60;108989;1258;59273;-87
2023/07/27 04:55:49;;;;;;;13.00;7.60;;;;;;;31.25;100.00;99246.86;108990;1254;60911;-87
2023/07/27 04:58:37;;;;;;;10.50;7.90;;;;;;;31.19;100.00;99299.79;109007;1254;64604;-86
2023/07/27 05:01:25;;;;;;;16.40;8.30;;;;;;;31.16;100.00;99322.85;108910;1253;62033;-87
2023/07/27 05:04:14;;;;;;;13.80;8.50;;;;;;;31.14;100.00;99313.72;109137;1253;65711;-87
2023/07/27 05:07:02;;;;;;;14.60;8.10;;;;;;;31.26;100.00;99292.64;109114;1254;59866;-87
2023/07/27 05:09:51;;;;;;;13.10;8.00;;;;;;;31.49;100.00;99287.69;109123;1253;59122;-87
2023/07/27 05:12:39;;;;;;;16.60;8.00;;;;;;;31.73;100.00;99270.08;109112;1253;68300;-87
2023/07/27 05:15:27;;;;;;;13.60;7.60;;;;;;;31.89;100.00;99250.77;108986;1253;60461;-88
2023/07/27 05:18:16;;;;;;;15.80;8.50;;;;;;;31.88;100.00;99252.95;109121;1253;71459;-90
2023/07/27 05:21:04;;;;;;;13.80;8.00;;;;;;;31.94;100.00;99280.23;108998;1256;59190;-90
2023/07/27 05:23:52;;;;;;;14.30;7.80;;;;;;;31.97;100.00;99287.32;108986;1253;59190;-87
2023/07/27 05:26:41;;;;;;;11.60;7.30;;;;;;;32.04;100.00;99293.39;109040;1254;66647;-87
2023/07/27 05:29:30;;;;;;;13.20;7.50;;;;;;;32.06;100.00;99304.55;108978;1253;62090;-89
2023/07/27 05:32:18;;;;;;;15.90;7.50;;;;;;;32.01;100.00;99299.56;109006;1252;65765;-90
2023/07/27 05:35:07;;;;;;;13.60;7.40;;;;;;;32.06;100.00;99299.11;109000;1253;59517;-89
2023/07/27 05:37:55;;;;;;;14.90;8.00;;;;;;;32.10;100.00;99289.80;108970;1253;59506;-90
2023/07/27 05:40:44;;;;;;;15.00;7.90;;;;;;;32.15;100.00;99284.45;109156;1253;67626;-87
2023/07/27 05:43:32;;;;;;;14.80;8.00;;;;;;;32.10;100.00;99263.56;109031;1257;60886;-91
2023/07/27 05:46:21;;;;;;;12.40;7.20;;;;;;;32.14;100.00;99255.94;109015;1253;64098;-87
2023/07/27 05:49:09;;;;;;;14.30;7.20;;;;;;;32.30;100.00;99269.66;108989;1255;59677;-87
2023/07/27 05:51:59;;;;;;;11.80;7.10;;;;;;;32.40;100.00;99295.26;109001;1253;59687;-87
2023/07/27 05:54:47;;;;;;;15.00;7.80;;;;;;;32.43;100.00;99309.20;109075;1257;67988;-86
2023/07/27 05:57:36;;;;;;;12.20;8.10;;;;;;;32.41;100.00;99304.19;109092;1253;60809;-87
2023/07/27 06:00:24;;;;;;;14.90;7.50;;;;;;;32.33;100.00;99303.63;108946;1253;65304;-87
2023/07/27 06:03:18;;;;;;;12.90;7.90;;;;;;;32.36;100.00;99300.70;109006;1253;59562;-87
2023/07/27 06:06:07;;;;;;;19.10;7.80;;;;;;;32.45;100.00;99295.48;109035;1253;59598;-88
2023/07/27 06:08:55;;;;;;;13.40;7.10;;;;;;;32.46;100.00;99292.29;109073;1253;66761;-89
2023/07/27 06:11:44;;;;;;;14.50;7.10;;;;;;;32.49;100.00;99282.40;108950;1253;61788;-88
2023/07/27 06:14:40;;;;;;;16.20;7.90;;;;;;;32.55;100.00;99281.59;108933;1253;64984;-88
2023/07/27 06:17:35;;;;;;;13.70;7.40;;;;;;;32.48;100.00;99280.36;109060;1254;62580;-88
2023/07/27 06:20:24;;;;;;;13.10;7.70;;;;;;;32.45;100.00;99283.02;109101;1252;62228;-90
2023/07/27 06:23:12;;;;;;;14.40;8.00;;;;;;;32.47;100.00;99297.84;109151;1252;66616;-88
2023/07/27 06:26:01;;;;;;;15.70;7.00;;;;;;;32.56;100.00;99306.42;109125;1250;59114;-88
2023/07/27 06:28:49;;;;;;;14.50;7.40;;;;;;;32.54;100.00;99318.29;109098;1252;65306;-87
2023/07/27 06:31:38;;;;;;;10.10;7.00;;;;;;;32.50;100.00;99326.67;109162;1251;59344;-88
2023/07/27 06:34:26;;;;;;;12.30;7.10;;;;;;;32.42;100.00;99329.36;109161;1251;59072;-87
2023/07/27 06:37:16;;;;;;;15.30;8.20;;;;;;;32.38;100.00;99328.27;109157;1251;68390;-89
2023/07/27 06:40:05;;;;;;;13.20;8.10;;;;;;;32.26;100.00;99328.90;109239;1251;61822;-88
2023/07/27 06:42:54;;;;;;;14.30;8.30;;;;;;;32.19;100.00;99327.70;109179;1251;64613;-88
2023/07/27 06:45:42;;;;;;;10.70;7.30;;;;;;;32.09;100.00;99332.52;109154;1254;59207;-88
2023/07/27 06:48:31;;;;;;;14.90;7.30;;;;;;;32.06;100.00;99347.02;109172;1251;60642;-88
2023/07/27 06:51:19;;;;;;;12.50;8.00;;;;;;;31.97;100.00;99344.40;109091;1251;67920;-88
2023/07/27 06:54:08;;;;;;;15.30;7.70;;;;;;;31.95;100.00;99352.54;109188;1251;62505;-87
2023/07/27 06:56:57;;;;;;;16.30;7.70;;;;;;;32.01;100.00;99345.64;109068;1251;66106;-86
2023/07/27 06:59:45;;;;;;;14.00;8.00;;;;;;;32.09;100.00;99342.54;109138;1253;59574;-88
2023/07/27 07:02:34;;;;;;;12.80;7.90;;;;;;;32.10;100.00;99349.20;109121;1253;63034;-88
2023/07/27 07:05:25;;;;;;;13.30;8.10;;;;;;;32.10;100.00;99354.45;108961;1253;67690;-88
2023/07/27 07:08:14;;;;;;;14.00;8.40;;;;;;;32.22;100.00;99350.11;108954;1253;59460;-89
2023/07/27 07:11:02;;;;;;;12.90;7.80;;;;;;;32.47;100.00;99357.96;109071;1256;64717;-90
2023/07/27 07:13:51;;;;;;;12.60;7.70;;;;;;;32.78;100.00;99358.98;109090;1254;59772;-89
2023/07/27 07:16:39;;;;;;;14.50;8.00;;;;;;;33.12;100.00;99354.63;109279;1251;59527;-87
2023/07/27 07:19:28;;;;;;;12.80;8.80;;;;;;;33.45;100.00;99347.81;108962;1251;67761;-88
2023/07/27 07:22:16;;;;;;;15.80;8.40;;;;;;;33.81;100.00;99350.23;109043;1256;60634;-89
2023/07/27 07:25:05;;;;;;;11.00;7.90;;;;;;;34.09;100.00;99343.55;109146;1253;65052;-88
2023/07/27 07:27:54;;;;;;;16.00;7.30;;;;;;;34.24;100.00;99328.85;109133;1253;59895;-90
2023/07/27 07:30:43;;;;;;;12.60;7.50;;;;;;;34.45;100.00;99324.15;109085;1254;59193;-89
2023/07/27 07:33:31;;;;;;;17.40;7.50;;;;;;;34.49;100.00;99330.61;109135;1253;66144;-89
2023/07/27 07:36:20;;;;;;;11.10;6.70;;;;;;;34.59;100.00;99329.31;109173;1251;60564;-89
2023/07/27 07:39:09;;;;;;;10.40;6.70;;;;;;;34.73;100.00;99320.58;109112;1251;66365;-88
2023/07/27 07:42:00;;;;;;;10.50;6.50;;;;;;;34.94;100.00;99326.48;109200;1251;59106;-89
2023/07/27 07:44:48;;;;;;;10.60;7.20;;;;;;;34.98;99.85;99327.95;109248;1251;59423;-87
2023/07/27 07:47:37;;;;;;;11.90;6.30;;;;;;;35.06;98.18;99337.15;109128;1253;68124;-88
2023/07/27 07:50:25;;;;;;;12.00;6.80;;;;;;;35.06;95.63;99339.92;109245;1251;61603;-88
2023/07/27 07:53:14;;;;;;;14.10;6.50;;;;;;;35.02;93.94;99330.79;109129;1252;64737;-89
2023/07/27 07:56:17;;;;;;;14.70;6.30;;;;;;;34.96;94.55;99323.41;109117;1254;59090;-90
2023/07/27 07:59:07;;;;;;;13.70;6.80;;;;;;;35.06;95.18;99322.80;108832;1251;59983;-90
